Time;durP1;ratioP1;P1;durP2;ratioP2;P2;SDS_P1;SDS_P2;PMS_P1;PMS_P2;Temp;Humidity;BMP_temperature;BMP_pressure;BME280_temperature;BME280_humidity;BME280_pressure;Samples;Min_cycle;Max_cycle;Signal;HPM_P1;HPM_P2
2022/08/20 00:02:09;;;;;;;31.55;22.30;;;;;;;17.56;100.00;101322.06;10444793;28;20043;-77
2022/08/20 00:07:10;;;;;;;40.95;25.67;;;;;;;17.57;100.00;101321.22;10445026;28;20083;-78
2022/08/20 00:12:11;;;;;;;51.00;28.55;;;;;;;17.55;100.00;101313.22;10426661;28;20033;-78
2022/08/20 00:17:12;;;;;;;46.10;26.40;;;;;;;17.51;100.00;101318.41;10426930;28;20041;-79
2022/08/20 00:22:12;;;;;;;49.15;30.73;;;;;;;17.45;100.00;101312.09;10443491;28;20056;-78
2022/08/20 00:27:13;;;;;;;33.90;23.00;;;;;;;17.44;100.00;101312.03;10426503;28;20130;-78
2022/08/20 00:32:13;;;;;;;49.28;27.92;;;;;;;17.44;100.00;101314.69;10425404;28;20037;-78
2022/08/20 00:37:14;;;;;;;48.40;28.73;;;;;;;17.47;100.00;101312.13;10443735;28;20389;-78
2022/08/20 00:42:14;;;;;;;49.33;29.52;;;;;;;17.50;100.00;101311.31;10425590;28;20045;-78
2022/08/20 00:47:15;;;;;;;54.08;30.63;;;;;;;17.49;100.00;101310.41;10442470;28;20042;-78
2022/08/20 00:52:17;;;;;;;50.75;33.90;;;;;;;17.50;100.00;101309.56;10442093;28;20068;-78
2022/08/20 00:57:35;;;;;;;54.92;31.25;;;;;;;17.52;100.00;101314.91;10425856;28;20037;-78
2022/08/20 01:02:36;;;;;;;51.60;31.33;;;;;;;17.46;100.00;101305.94;10424393;28;20069;-78
2022/08/20 01:07:36;;;;;;;53.65;32.33;;;;;;;17.42;100.00;101297.88;10442825;28;20120;-78
2022/08/20 01:12:38;;;;;;;64.10;36.78;;;;;;;17.42;100.00;101297.88;10442949;28;20032;-78
2022/08/20 01:17:43;;;;;;;62.45;36.72;;;;;;;17.46;100.00;101297.09;10442765;28;20485;-79
2022/08/20 01:23:31;;;;;;;51.40;33.22;;;;;;;17.46;100.00;101294.47;10424284;28;20033;-79
2022/08/20 01:28:37;;;;;;;58.22;34.40;;;;;;;17.45;100.00;101305.91;10381286;28;20417;-78
2022/08/20 01:33:38;;;;;;;65.65;37.63;;;;;;;17.47;100.00;101301.53;10440532;28;20477;-78
2022/08/20 01:38:38;;;;;;;72.32;40.00;;;;;;;17.50;100.00;101306.91;10439838;28;20045;-78
2022/08/20 01:43:40;;;;;;;65.18;38.03;;;;;;;17.50;100.00;101298.09;10423734;28;20142;-78
2022/08/20 01:48:41;;;;;;;71.63;37.80;;;;;;;17.53;100.00;101292.88;10424232;28;20041;-78
2022/08/20 01:53:44;;;;;;;69.00;34.80;;;;;;;17.53;100.00;101303.47;10408496;28;20551;-78
2022/08/20 01:58:48;;;;;;;64.97;35.75;;;;;;;17.54;100.00;101306.13;10424437;28;20029;-78
2022/08/20 02:03:49;;;;;;;77.28;39.45;;;;;;;17.56;100.00;101303.53;10384720;28;20478;-78
2022/08/20 02:08:50;;;;;;;65.47;33.47;;;;;;;17.58;100.00;101299.19;10383943;28;20049;-78
2022/08/20 02:13:51;;;;;;;71.43;38.90;;;;;;;17.59;100.00;101298.34;10398707;28;20050;-79
2022/08/20 02:18:57;;;;;;;66.63;38.37;;;;;;;17.58;100.00;101301.84;10383000;28;20033;-78
2022/08/20 02:23:57;;;;;;;62.60;36.90;;;;;;;17.58;100.00;101302.72;10383133;28;20489;-78
2022/08/20 02:28:58;;;;;;;59.85;34.53;;;;;;;17.60;100.00;101303.66;10399355;28;20035;-78
2022/08/20 02:33:58;;;;;;;68.05;37.83;;;;;;;17.65;100.00;101308.16;10402092;28;20040;-77
2022/08/20 02:38:59;;;;;;;62.08;37.95;;;;;;;17.67;100.00;101306.44;10407830;28;20389;-78
2022/08/20 02:43:59;;;;;;;70.80;39.92;;;;;;;17.63;100.00;101316.09;10406330;28;20048;-79
2022/08/20 02:49:00;;;;;;;84.90;43.63;;;;;;;17.61;100.00;101307.22;10405934;28;20040;-79
2022/08/20 02:54:00;;;;;;;82.10;46.30;;;;;;;17.53;100.00;101314.06;10406898;28;20512;-79
2022/08/20 02:59:01;;;;;;;89.13;46.78;;;;;;;17.49;100.00;101312.19;10406265;28;20053;-79
2022/08/20 03:04:02;;;;;;;88.35;48.20;;;;;;;17.49;100.00;101314.81;10406032;28;20111;-79
2022/08/20 03:09:05;;;;;;;106.18;51.03;;;;;;;17.38;100.00;101318.09;10404795;28;20034;-78
2022/08/20 03:14:05;;;;;;;108.40;51.45;;;;;;;17.32;100.00;101316.16;10406547;28;20035;-78
2022/08/20 03:19:07;;;;;;;95.60;51.08;;;;;;;17.27;100.00;101315.13;10405135;28;20375;-79
2022/08/20 03:24:08;;;;;;;93.45;49.80;;;;;;;17.25;100.00;101314.19;10406767;28;20098;-78
2022/08/20 03:29:08;;;;;;;98.13;52.70;;;;;;;17.23;100.00;101318.53;10388422;28;20042;-78
2022/08/20 03:34:08;;;;;;;97.68;51.78;;;;;;;17.21;100.00;101319.38;10387766;28;20482;-77
2022/08/20 03:39:11;;;;;;;97.00;50.63;;;;;;;17.18;100.00;101317.53;10388048;28;20041;-78
2022/08/20 03:44:12;;;;;;;98.63;47.50;;;;;;;17.18;100.00;101317.53;10402837;28;20048;-78
2022/08/20 03:49:13;;;;;;;85.95;48.50;;;;;;;17.16;100.00;101324.53;10387147;28;20057;-78
2022/08/20 03:54:13;;;;;;;106.32;49.25;;;;;;;17.10;100.00;101327.00;10404473;28;20040;-78
2022/08/20 03:59:14;;;;;;;102.43;50.88;;;;;;;17.07;100.00;101329.56;10402603;28;20092;-77
2022/08/20 04:04:14;;;;;;;93.35;50.35;;;;;;;17.07;100.00;101332.19;10403416;28;20515;-77
2022/08/20 04:09:15;;;;;;;99.60;53.03;;;;;;;17.05;100.00;101342.75;10403882;28;20049;-78
2022/08/20 04:14:15;;;;;;;93.22;49.75;;;;;;;17.05;100.00;101331.25;10404587;28;20034;-77
2022/08/20 04:19:16;;;;;;;94.72;50.78;;;;;;;16.98;100.00;101343.41;10402147;28;20144;-77
2022/08/20 04:24:16;;;;;;;91.43;47.95;;;;;;;16.93;100.00;101351.16;10401390;28;20076;-78
2022/08/20 04:29:17;;;;;;;90.57;47.47;;;;;;;16.88;100.00;101361.63;10404012;28;20040;-78
2022/08/20 04:34:18;;;;;;;85.35;48.90;;;;;;;16.85;100.00;101365.91;10401183;28;20073;-78
2022/08/20 04:39:18;;;;;;;91.22;46.88;;;;;;;16.86;100.00;101372.97;10403143;28;20037;-78
2022/08/20 04:44:20;;;;;;;84.30;46.15;;;;;;;16.87;100.00;101385.34;10403222;28;20040;-78
2022/08/20 04:49:23;;;;;;;76.28;43.65;;;;;;;16.83;100.00;101391.41;10403494;28;20034;-77
2022/08/20 04:54:24;;;;;;;84.95;47.50;;;;;;;16.85;100.00;101392.34;10400761;28;20109;-79
2022/08/20 04:59:25;;;;;;;83.82;45.80;;;;;;;16.83;100.00;101394.97;10400773;28;20034;-79
2022/08/20 05:04:26;;;;;;;73.67;42.67;;;;;;;16.81;100.00;101398.38;10402649;28;20077;-79
2022/08/20 05:09:26;;;;;;;73.40;37.00;;;;;;;16.68;100.00;101408.56;10400589;28;20485;-78
2022/08/20 05:14:28;;;;;;;74.15;35.97;;;;;;;16.59;100.00;101413.56;10401824;28;20076;-79
2022/08/20 05:19:29;;;;;;;64.07;37.20;;;;;;;16.44;100.00;101424.56;10383896;28;20044;-78
2022/08/20 05:24:29;;;;;;;70.03;36.20;;;;;;;16.40;100.00;101420.03;10402177;28;20120;-78
2022/08/20 05:29:30;;;;;;;71.25;38.03;;;;;;;16.40;100.00;101420.03;10400014;28;20043;-78
2022/08/20 05:34:30;;;;;;;70.45;36.70;;;;;;;16.32;100.00;101422.41;10400180;28;20040;-77
2022/08/20 05:39:31;;;;;;;64.90;38.70;;;;;;;16.29;100.00;101422.31;10401838;28;20453;-78
2022/08/20 05:44:31;;;;;;;68.85;36.97;;;;;;;16.26;100.00;101424.84;10383359;28;20035;-78
2022/08/20 05:49:32;;;;;;;69.32;34.60;;;;;;;16.38;100.00;101419.97;10400800;28;20474;-78
2022/08/20 05:54:33;;;;;;;66.32;32.50;;;;;;;16.44;100.00;101427.22;10399199;28;20030;-78
2022/08/20 05:59:35;;;;;;;56.85;33.55;;;;;;;16.51;100.00;101426.56;10399903;28;20504;-79
2022/08/20 06:04:35;;;;;;;51.67;28.55;;;;;;;16.60;100.00;101425.94;10401654;28;20037;-78
2022/08/20 06:09:36;;;;;;;44.28;27.23;;;;;;;16.70;100.00;101430.66;10405073;28;20125;-79
2022/08/20 06:14:36;;;;;;;49.38;25.15;;;;;;;16.67;100.00;101440.25;10407698;28;20057;-79
2022/08/20 06:19:37;;;;;;;47.55;24.10;;;;;;;16.74;100.00;101431.69;10406633;28;20439;-79
2022/08/20 06:24:38;;;;;;;57.15;27.23;;;;;;;16.78;100.00;101432.66;10406982;28;20041;-79
2022/08/20 06:29:38;;;;;;;47.15;25.33;;;;;;;16.92;100.00;101439.25;10407084;28;20033;-78
2022/08/20 06:34:39;;;;;;;57.42;26.77;;;;;;;16.99;100.00;101437.75;10407025;28;20487;-78
2022/08/20 06:39:39;;;;;;;43.38;25.63;;;;;;;16.85;100.00;101440.84;10405905;28;20036;-79
2022/08/20 06:44:40;;;;;;;50.78;24.20;;;;;;;16.81;100.00;101440.69;10405727;28;20388;-79
2022/08/20 06:49:40;;;;;;;57.65;27.88;;;;;;;16.76;100.00;101442.28;10406378;28;20117;-79
2022/08/20 06:54:41;;;;;;;41.47;25.10;;;;;;;16.93;100.00;101443.69;10407844;28;20045;-78
2022/08/20 06:59:41;;;;;;;45.33;24.60;;;;;;;16.99;100.00;101446.56;10407301;28;20099;-78
2022/08/20 07:04:42;;;;;;;49.78;26.45;;;;;;;16.89;100.00;101457.69;10406058;28;20117;-79
2022/08/20 07:09:42;;;;;;;59.72;25.58;;;;;;;16.94;100.00;101450.78;10406516;28;20096;-78
2022/08/20 07:14:43;;;;;;;62.28;28.55;;;;;;;17.31;100.00;101451.91;10405056;28;20113;-78
2022/08/20 07:19:43;;;;;;;47.00;25.70;;;;;;;17.59;100.00;101455.34;10387040;28;20063;-78
2022/08/20 07:24:44;;;;;;;50.88;25.52;;;;;;;17.42;100.00;101459.28;10405207;28;20117;-82
2022/08/20 07:35:08;;;;;;;47.50;23.15;;;;;;;16.93;100.00;101467.50;10405370;28;20075;-77
2022/08/20 07:40:17;;;;;;;48.83;22.60;;;;;;;16.87;100.00;101473.50;10403575;28;20481;-77
2022/08/20 07:45:17;;;;;;;46.20;24.48;;;;;;;16.85;100.00;101483.13;10387955;28;20465;-78
2022/08/20 07:50:21;;;;;;;61.65;25.45;;;;;;;16.96;100.00;101486.09;10405045;28;20045;-78
2022/08/20 07:55:21;;;;;;;43.65;25.05;;;;;;;17.17;100.00;101493.84;10442774;28;20057;-78
2022/08/20 08:00:22;;;;;;;38.00;20.65;;;;;;;17.31;100.00;101488.97;10444494;28;20147;-78
2022/08/20 08:05:23;;;;;;;43.47;22.00;;;;;;;17.36;100.00;101496.13;10427664;28;20072;-78
2022/08/20 08:10:23;;;;;;;50.97;22.10;;;;;;;17.38;100.00;101498.00;10443870;28;20032;-78
2022/08/20 08:15:27;;;;;;;40.28;21.65;;;;;;;17.47;100.00;101500.00;10443228;28;20025;-78
2022/08/20 08:20:27;;;;;;;42.90;23.88;;;;;;;17.53;100.00;101502.81;10427129;28;20047;-79
2022/08/20 08:25:28;;;;;;;37.15;20.73;;;;;;;17.48;100.00;101500.91;10444216;28;20594;-79
2022/08/20 08:30:28;;;;;;;38.78;23.42;;;;;;;17.49;100.00;101506.22;10442762;28;20029;-80
2022/08/20 08:35:32;;;;;;;47.20;25.65;;;;;;;17.45;100.00;101510.56;10443186;28;20156;-79
2022/08/20 08:40:33;;;;;;;49.33;28.60;;;;;;;17.37;100.00;101509.44;10443906;28;20068;-81
2022/08/20 08:45:44;;;;;;;42.55;26.90;;;;;;;17.45;100.00;101521.13;10442208;28;20542;-81
2022/08/20 08:50:46;;;;;;;53.88;29.38;;;;;;;17.54;100.00;101514.31;10402375;28;20044;-81
2022/08/20 08:55:46;;;;;;;40.97;26.65;;;;;;;17.61;100.00;101522.47;10424968;28;20037;-81
2022/08/20 09:00:47;;;;;;;47.25;25.92;;;;;;;17.63;100.00;101529.56;10440957;28;20123;-81
2022/08/20 09:05:52;;;;;;;52.28;27.85;;;;;;;17.65;100.00;101533.13;10441825;28;20060;-81
2022/08/20 09:10:52;;;;;;;45.47;27.38;;;;;;;17.65;100.00;101539.34;10386855;28;20056;-81
2022/08/20 09:15:53;;;;;;;59.33;30.77;;;;;;;17.73;100.00;101542.19;10401549;28;20044;-81
2022/08/20 09:20:54;;;;;;;57.75;30.38;;;;;;;17.85;99.06;101550.50;10408322;28;20040;-81
2022/08/20 09:25:54;;;;;;;43.42;28.23;;;;;;;18.22;98.64;101547.09;10484109;28;20560;-79
2022/08/20 09:30:55;;;;;;;49.72;28.13;;;;;;;18.40;94.22;101544.94;10481565;28;20041;-81
2022/08/20 09:35:56;;;;;;;45.22;27.65;;;;;;;18.49;95.30;101545.19;10465088;28;20028;-81
2022/08/20 09:40:56;;;;;;;44.05;29.48;;;;;;;18.70;94.04;101538.63;10450462;28;20108;-82
2022/08/20 09:45:57;;;;;;;38.35;25.92;;;;;;;18.75;93.25;101547.59;10445035;28;20025;-81
2022/08/20 09:50:57;;;;;;;44.33;25.70;;;;;;;18.42;93.82;101547.66;10449557;28;20507;-81
2022/08/20 09:55:59;;;;;;;48.90;33.42;;;;;;;18.36;94.85;101545.72;10448033;28;20435;-83
2022/08/20 10:01:15;;;;;;;49.53;30.50;;;;;;;18.96;92.62;101540.16;10442468;28;20904;-79
2022/08/20 10:06:19;;;;;;;49.60;26.45;;;;;;;22.75;78.51;101533.78;10422654;28;20041;-78
2022/08/20 10:11:19;;;;;;;42.95;25.48;;;;;;;25.40;62.96;101528.16;10357327;28;20042;-78
2022/08/20 10:16:20;;;;;;;38.97;23.07;;;;;;;25.73;61.97;101537.00;10404075;28;20037;-78
2022/08/20 10:21:20;;;;;;;43.07;23.10;;;;;;;25.20;62.53;101525.56;10407404;28;20490;-79
2022/08/20 10:26:21;;;;;;;32.87;21.07;;;;;;;26.80;57.30;101525.53;10406180;28;20041;-77
2022/08/20 10:31:21;;;;;;;32.37;19.97;;;;;;;26.32;58.32;101530.44;10403357;28;20136;-76
2022/08/20 10:36:22;;;;;;;23.65;16.77;;;;;;;27.20;53.09;101528.75;10404451;28;20025;-76
2022/08/20 10:41:23;;;;;;;29.33;17.70;;;;;;;27.88;52.53;101543.13;10429008;28;20121;-77
2022/08/20 10:46:23;;;;;;;18.53;12.00;;;;;;;28.33;48.93;101537.13;10400766;28;20551;-78
2022/08/20 10:51:24;;;;;;;19.47;11.83;;;;;;;28.98;47.78;101531.53;10370284;28;20041;-77
2022/08/20 10:56:24;;;;;;;19.20;12.47;;;;;;;29.44;43.82;101536.94;10403161;28;20041;-77
2022/08/20 11:01:25;;;;;;;19.37;13.57;;;;;;;27.06;51.42;101542.31;10439364;28;20405;-77
2022/08/20 11:06:26;;;;;;;23.40;14.93;;;;;;;26.05;53.54;101538.59;10403081;28;20076;-76
2022/08/20 11:11:26;;;;;;;30.37;18.67;;;;;;;25.94;54.70;101540.47;10403184;28;20128;-79
2022/08/20 11:16:27;;;;;;;32.30;16.50;;;;;;;27.14;51.50;101540.44;10403900;28;20552;-76
2022/08/20 11:21:28;;;;;;;15.50;13.53;;;;;;;27.00;50.44;101537.91;10402406;28;20037;-76
2022/08/20 11:26:28;;;;;;;20.47;13.30;;;;;;;27.07;52.24;101536.94;10384958;28;20267;-77
2022/08/20 11:31:29;;;;;;;18.37;13.93;;;;;;;29.11;44.92;101534.88;10386252;28;20124;-76
2022/08/20 11:36:33;;;;;;;15.43;12.97;;;;;;;30.03;43.40;101542.00;10403447;28;20037;-78
2022/08/20 11:41:33;;;;;;;25.00;14.48;;;;;;;28.82;45.08;101521.94;10401683;28;20046;-77
2022/08/20 11:46:34;;;;;;;20.13;12.60;;;;;;;28.23;47.75;101537.28;10402581;28;20069;-78
2022/08/20 11:51:36;;;;;;;16.00;11.93;;;;;;;29.50;45.24;101533.25;10385560;28;20034;-78
2022/08/20 11:56:36;;;;;;;17.55;11.13;;;;;;;29.23;43.54;101536.44;10400403;28;20038;-75
2022/08/20 12:01:37;;;;;;;17.17;11.60;;;;;;;29.65;42.39;101523.94;10402298;28;20143;-77
2022/08/20 12:06:37;;;;;;;14.50;9.70;;;;;;;30.00;44.14;101511.47;10383726;28;20049;-76
2022/08/20 12:11:38;;;;;;;16.07;10.47;;;;;;;28.72;44.41;101513.13;10399906;28;20569;-77
2022/08/20 12:16:38;;;;;;;20.57;14.13;;;;;;;29.34;43.18;101511.06;10399169;28;20108;-77
2022/08/20 12:21:39;;;;;;;17.03;10.70;;;;;;;28.08;43.92;101515.97;10401166;28;20682;-76
2022/08/20 12:26:40;;;;;;;16.93;12.37;;;;;;;28.91;44.46;101518.22;10382772;28;20069;-77
2022/08/20 12:31:40;;;;;;;17.50;12.10;;;;;;;28.62;42.40;101516.91;10399778;28;20493;-78
2022/08/20 12:36:41;;;;;;;20.80;13.13;;;;;;;30.17;40.70;101508.38;10413126;28;20037;-78
2022/08/20 12:41:41;;;;;;;19.83;14.67;;;;;;;30.30;41.06;101511.66;10399286;28;20234;-76
2022/08/20 12:46:42;;;;;;;17.50;12.27;;;;;;;29.93;40.21;101510.72;10433727;28;20164;-77
2022/08/20 12:51:43;;;;;;;16.93;11.67;;;;;;;28.95;43.62;101506.47;10401187;28;20060;-77
2022/08/20 12:56:45;;;;;;;18.58;12.07;;;;;;;30.58;38.53;101495.69;10362154;28;20030;-79
2022/08/20 13:01:45;;;;;;;19.37;12.20;;;;;;;30.31;39.53;101498.13;10399650;28;20453;-76
2022/08/20 13:06:46;;;;;;;15.30;12.10;;;;;;;31.02;37.89;101508.00;10399692;28;20041;-76
2022/08/20 13:11:46;;;;;;;18.23;11.20;;;;;;;29.18;42.54;101514.06;10399987;28;20061;-78
2022/08/20 13:16:47;;;;;;;20.87;13.03;;;;;;;29.65;39.64;101505.03;10383862;28;20125;-76
2022/08/20 13:21:47;;;;;;;18.47;11.17;;;;;;;30.50;39.76;101489.56;10400014;28;20041;-76
2022/08/20 13:26:48;;;;;;;18.50;11.93;;;;;;;30.46;38.32;101486.03;10398957;28;20128;-75
2022/08/20 13:31:49;;;;;;;14.68;10.20;;;;;;;30.96;37.09;101486.56;10399125;28;20275;-78
2022/08/20 13:36:49;;;;;;;17.87;10.27;;;;;;;30.50;37.20;101478.75;10401857;28;20041;-76
2022/08/20 13:41:50;;;;;;;17.00;10.93;;;;;;;29.23;40.09;101477.16;10401283;28;20047;-76
2022/08/20 13:46:52;;;;;;;17.03;10.30;;;;;;;28.65;41.59;101476.47;10442560;28;20128;-76
2022/08/20 13:51:53;;;;;;;19.95;11.50;;;;;;;28.21;41.10;101477.22;10400272;28;20473;-76
2022/08/20 13:57:06;;;;;;;15.20;10.53;;;;;;;28.45;39.45;101464.25;10399118;28;20116;-77
2022/08/20 14:02:06;;;;;;;20.48;10.77;;;;;;;26.67;43.22;101470.19;10437851;28;20037;-77
2022/08/20 14:07:14;;;;;;;15.10;8.17;;;;;;;27.58;41.24;101472.75;10440310;28;20045;-77
2022/08/20 14:12:14;;;;;;;17.60;8.63;;;;;;;29.54;39.02;101470.25;10441140;28;20045;-76
2022/08/20 14:17:19;;;;;;;22.90;9.33;;;;;;;30.29;37.60;101461.28;10423276;28;20037;-76
2022/08/20 14:22:20;;;;;;;16.17;7.72;;;;;;;30.28;35.11;101462.22;10440142;28;20091;-77
2022/08/20 14:27:21;;;;;;;11.25;6.88;;;;;;;29.76;36.44;101462.53;10440122;28;20033;-77
2022/08/20 14:32:22;;;;;;;11.88;6.30;;;;;;;28.62;37.85;101466.63;10447031;28;20041;-77
2022/08/20 14:37:24;;;;;;;14.23;7.53;;;;;;;26.85;41.04;101479.84;10448487;28;20064;-76
2022/08/20 14:42:26;;;;;;;13.48;7.75;;;;;;;26.13;44.24;101466.16;10430941;28;20036;-76
2022/08/20 14:47:29;;;;;;;15.52;8.10;;;;;;;26.64;42.73;101471.09;10447568;28;20048;-76
2022/08/20 14:52:30;;;;;;;15.20;8.10;;;;;;;26.09;42.85;101462.59;10446926;28;20036;-76
2022/08/20 14:57:30;;;;;;;13.63;7.15;;;;;;;27.10;40.52;101466.16;10446357;28;20040;-76
2022/08/20 15:02:31;;;;;;;14.10;7.00;;;;;;;28.03;40.10;101459.53;10430804;28;20422;-76
2022/08/20 15:07:33;;;;;;;10.03;4.90;;;;;;;28.53;38.75;101458.72;10445951;28;20055;-76
2022/08/20 15:12:34;;;;;;;11.50;6.57;;;;;;;28.21;39.09;101468.25;10445776;28;20095;-76
2022/08/20 15:17:34;;;;;;;12.03;6.70;;;;;;;28.06;36.72;101464.84;10446363;28;20040;-77
2022/08/20 15:22:35;;;;;;;11.37;6.33;;;;;;;27.70;39.01;101467.19;10446067;28;20470;-76
2022/08/20 15:27:36;;;;;;;8.90;5.97;;;;;;;27.58;38.74;101464.69;10445293;28;20465;-76
2022/08/20 15:32:36;;;;;;;14.10;5.60;;;;;;;27.85;38.38;101463.41;10445350;28;20041;-77
2022/08/20 15:37:41;;;;;;;8.77;5.57;;;;;;;27.21;42.84;101460.66;10446109;28;20033;-76
2022/08/20 15:42:42;;;;;;;10.85;5.30;;;;;;;26.51;40.51;101456.00;10410544;28;20465;-77
2022/08/20 15:47:43;;;;;;;20.27;6.70;;;;;;;26.27;41.11;101444.59;10444595;28;20120;-77
2022/08/20 15:52:43;;;;;;;12.40;5.77;;;;;;;25.44;44.47;101459.41;10445722;28;20039;-76
2022/08/20 15:58:19;;;;;;;14.07;7.60;;;;;;;24.71;45.84;101459.59;10444603;28;20044;-77
2022/08/20 16:03:43;;;;;;;11.10;4.95;;;;;;;24.61;46.16;101456.94;10411469;28;20499;-77
2022/08/20 16:09:05;;;;;;;12.23;5.28;;;;;;;24.59;45.75;101453.38;10433518;28;20473;-77
2022/08/20 16:14:17;;;;;;;6.70;4.32;;;;;;;24.24;47.28;101450.75;10443599;28;20520;-77
2022/08/20 16:19:22;;;;;;;;;;;;;;;23.82;45.44;101453.31;10444384;28;20480;-76
2022/08/20 16:24:22;;;;;;;9.82;4.15;;;;;;;23.25;47.79;101468.28;10443646;28;19920;-76
2022/08/20 16:29:42;;;;;;;9.60;4.33;;;;;;;22.67;48.13;101455.47;10427041;28;20036;-76
2022/08/20 16:35:25;;;;;;;10.43;3.97;;;;;;;22.16;50.42;101455.94;10442858;28;20083;-76
2022/08/20 16:40:30;;;;;;;13.00;3.60;;;;;;;21.96;51.64;101461.97;10434036;28;20128;-76
2022/08/20 16:45:57;;;;;;;12.32;3.45;;;;;;;21.94;55.88;101463.72;10441853;28;20080;-76
2022/08/20 16:51:01;;;;;;;8.52;4.68;;;;;;;21.77;54.24;101462.66;10425134;28;20103;-75
2022/08/20 16:56:02;;;;;;;8.88;4.00;;;;;;;21.64;58.42;101469.63;10425487;28;20028;-75
2022/08/20 17:01:11;;;;;;;14.63;6.00;;;;;;;21.83;53.08;101473.38;10443423;28;20044;-76
2022/08/20 17:06:23;;;;;;;9.05;4.10;;;;;;;22.31;51.24;101471.19;10441798;28;20049;-76
2022/08/20 17:11:30;;;;;;;11.15;5.13;;;;;;;22.45;50.00;101473.97;10441415;28;20037;-76
2022/08/20 17:16:39;;;;;;;13.35;5.95;;;;;;;22.19;51.37;101471.06;10442637;28;20033;-76
2022/08/20 17:21:40;;;;;;;11.75;5.55;;;;;;;21.91;54.10;101478.78;10425016;28;20487;-76
2022/08/20 17:26:43;;;;;;;8.57;5.00;;;;;;;21.71;53.70;101472.38;10440677;28;20119;-76
2022/08/20 17:31:45;;;;;;;11.02;5.53;;;;;;;21.41;55.75;101479.06;10441756;28;20029;-76
2022/08/20 17:36:56;;;;;;;26.35;7.60;;;;;;;21.10;57.53;101476.00;10425197;28;20429;-76
2022/08/20 17:42:19;;;;;;;9.13;5.22;;;;;;;20.84;58.28;101478.31;10425084;28;20061;-76
2022/08/20 17:47:23;;;;;;;10.18;6.40;;;;;;;20.59;59.73;101488.53;10440868;28;20111;-76
2022/08/20 17:52:29;;;;;;;10.20;5.63;;;;;;;20.46;60.36;101492.75;10424245;28;20092;-77
2022/08/20 17:57:32;;;;;;;9.85;4.78;;;;;;;20.25;61.35;101494.16;10441203;28;20064;-76
2022/08/20 18:02:33;;;;;;;13.40;7.10;;;;;;;19.98;62.48;101499.91;10424035;28;20131;-76
2022/08/20 18:07:37;;;;;;;10.10;5.22;;;;;;;19.88;62.52;101503.22;10431799;28;20071;-77
2022/08/20 18:12:40;;;;;;;10.93;5.30;;;;;;;19.66;63.96;101510.75;10432840;28;20045;-76
2022/08/20 18:18:11;;;;;;;11.82;5.25;;;;;;;19.34;66.62;101516.28;10448263;28;20087;-76
2022/08/20 18:23:17;;;;;;;9.80;5.53;;;;;;;18.90;68.07;101515.28;10434114;28;20049;-76
2022/08/20 18:28:27;;;;;;;11.02;5.35;;;;;;;18.51;70.13;101517.81;10431609;28;20040;-76
2022/08/20 18:33:38;;;;;;;15.00;7.90;;;;;;;18.12;72.53;101520.38;10466343;28;20053;-76
2022/08/20 18:38:42;;;;;;;12.75;5.05;;;;;;;17.78;75.31;101516.75;10481249;28;20033;-76
2022/08/20 18:43:43;;;;;;;9.93;6.80;;;;;;;17.44;76.00;101518.41;10390706;28;20114;-76
2022/08/20 18:48:51;;;;;;;10.82;6.38;;;;;;;17.13;78.84;101523.69;10407898;28;20410;-76
2022/08/20 18:53:52;;;;;;;15.00;7.38;;;;;;;16.90;81.56;101530.84;10406482;28;20075;-76
2022/08/20 18:58:58;;;;;;;8.55;5.93;;;;;;;16.71;83.01;101532.00;10405318;28;20541;-76
2022/08/20 19:03:59;;;;;;;19.48;7.20;;;;;;;16.42;84.52;101538.09;10407137;28;20512;-76
2022/08/20 19:09:22;;;;;;;8.95;6.35;;;;;;;16.20;87.27;101539.09;10405589;28;20117;-76
2022/08/20 19:14:32;;;;;;;7.47;6.07;;;;;;;16.14;88.74;101536.25;10405581;28;20030;-76
2022/08/20 19:19:32;;;;;;;13.20;7.07;;;;;;;15.93;89.71;101536.38;10404720;28;20083;-75
2022/08/20 19:24:34;;;;;;;15.32;6.75;;;;;;;15.79;90.73;101530.56;10388118;28;20116;-76
2022/08/20 19:29:48;;;;;;;11.57;7.68;;;;;;;15.61;91.84;101549.22;10388697;28;20045;-76
2022/08/20 19:34:56;;;;;;;11.32;8.60;;;;;;;15.46;92.58;101550.44;10387863;28;20038;-76
2022/08/20 19:39:57;;;;;;;12.20;7.75;;;;;;;15.30;93.98;101561.22;10404072;28;20033;-76
2022/08/20 19:45:06;;;;;;;13.02;8.38;;;;;;;15.17;94.90;101557.22;10403938;28;20034;-76
2022/08/20 19:50:27;;;;;;;13.93;7.10;;;;;;;15.06;94.60;101562.97;10388563;28;20123;-75
2022/08/20 19:55:30;;;;;;;14.05;8.90;;;;;;;14.87;95.29;101556.03;10403492;28;20405;-75
2022/08/20 20:00:44;;;;;;;10.07;7.50;;;;;;;14.68;95.35;101562.25;10386446;28;20040;-75
2022/08/20 20:05:53;;;;;;;18.30;8.43;;;;;;;14.52;95.79;101564.25;10404898;28;20045;-75
2022/08/20 20:10:58;;;;;;;18.33;10.77;;;;;;;14.37;96.93;101555.69;10403422;28;20053;-75
2022/08/20 20:16:00;;;;;;;12.07;8.80;;;;;;;14.31;97.10;101552.78;10410978;28;20033;-76
2022/08/20 20:21:16;;;;;;;11.75;9.50;;;;;;;14.19;97.90;101554.06;10443698;28;20074;-76
2022/08/20 20:26:18;;;;;;;15.70;10.00;;;;;;;14.14;98.85;101555.59;10444589;28;20087;-75
2022/08/20 20:31:26;;;;;;;12.00;9.13;;;;;;;14.05;99.05;101560.44;10410797;28;20546;-75
2022/08/20 20:37:03;;;;;;;15.32;10.13;;;;;;;13.88;99.28;101563.22;10459776;28;20116;-76
2022/08/20 20:42:06;;;;;;;10.52;8.43;;;;;;;13.75;99.95;101553.84;10408429;28;20037;-75
2022/08/20 20:47:15;;;;;;;12.18;9.82;;;;;;;13.66;100.00;101553.44;10427138;28;20040;-75
2022/08/20 20:52:19;;;;;;;12.70;9.93;;;;;;;13.57;100.00;101559.19;10442861;28;20061;-75
2022/08/20 20:57:19;;;;;;;20.23;10.57;;;;;;;13.59;100.00;101568.03;10442139;28;20041;-76
2022/08/20 21:02:20;;;;;;;15.40;11.23;;;;;;;13.50;100.00;101568.50;10443340;28;20048;-76
2022/08/20 21:07:21;;;;;;;14.10;9.93;;;;;;;13.41;100.00;101560.16;10442872;28;20124;-76
2022/08/20 21:12:23;;;;;;;14.60;10.13;;;;;;;13.26;100.00;101570.84;10441736;28;20069;-75
2022/08/20 21:17:24;;;;;;;13.43;9.80;;;;;;;13.13;100.00;101571.97;10424662;28;20029;-76
2022/08/20 21:22:24;;;;;;;20.98;11.75;;;;;;;13.06;100.00;101570.78;10443668;28;20029;-75
2022/08/20 21:27:25;;;;;;;13.77;10.85;;;;;;;12.99;100.00;101562.50;10443176;28;20036;-76
2022/08/20 21:32:26;;;;;;;17.25;10.77;;;;;;;12.93;100.00;101563.13;10424342;28;20032;-75
2022/08/20 21:37:26;;;;;;;18.35;10.60;;;;;;;12.85;100.00;101557.47;10438848;28;20072;-75
2022/08/20 21:42:27;;;;;;;13.27;10.50;;;;;;;12.77;100.00;101558.84;10424885;28;20060;-76
2022/08/20 21:47:27;;;;;;;16.88;10.73;;;;;;;12.72;100.00;101560.31;10423772;28;20059;-76
2022/08/20 21:52:28;;;;;;;18.30;11.10;;;;;;;12.66;100.00;101565.28;10423876;28;20044;-75
2022/08/20 21:57:29;;;;;;;12.07;9.98;;;;;;;12.64;100.00;101554.72;10441331;28;20029;-76
2022/08/20 22:02:30;;;;;;;14.50;10.70;;;;;;;12.57;100.00;101553.47;10423777;28;20048;-76
2022/08/20 22:07:31;;;;;;;15.67;12.33;;;;;;;12.57;100.00;101556.09;10440250;28;20393;-76
2022/08/20 22:12:31;;;;;;;18.83;11.98;;;;;;;12.45;100.00;101559.03;10422829;28;20041;-76
2022/08/20 22:17:32;;;;;;;14.57;10.20;;;;;;;12.36;100.00;101548.06;10439639;28;20029;-77
2022/08/20 22:22:32;;;;;;;15.30;11.85;;;;;;;12.29;100.00;101554.69;10439062;28;20037;-75
2022/08/20 22:27:33;;;;;;;24.77;11.52;;;;;;;12.23;100.00;101556.13;10439644;28;20397;-75
2022/08/20 22:32:34;;;;;;;17.77;11.25;;;;;;;12.23;100.00;101558.75;10440461;28;20090;-75
2022/08/20 22:37:34;;;;;;;14.90;11.05;;;;;;;12.23;100.00;101558.75;10423654;28;20396;-75
2022/08/20 22:42:35;;;;;;;19.00;12.23;;;;;;;12.10;100.00;101559.81;10439682;28;20132;-75